Time;durP1;ratioP1;P1;durP2;ratioP2;P2;SDS_P1;SDS_P2;PMS_P1;PMS_P2;Temp;Humidity;BMP_temperature;BMP_pressure;BME280_temperature;BME280_humidity;BME280_pressure;Samples;Min_cycle;Max_cycle;Signal;HPM_P1;HPM_P2
2021/10/18 00:00:12;;;;;;;32.25;17.73;;;9.20;99.90;;;;;;5054486;28;20610;-77
2021/10/18 00:02:40;;;;;;;33.20;18.02;;;9.10;99.90;;;;;;5054416;28;20124;-78
2021/10/18 00:05:09;;;;;;;30.98;16.90;;;9.10;99.90;;;;;;5054621;28;20132;-77
2021/10/18 00:07:37;;;;;;;33.00;17.05;;;9.10;99.90;;;;;;5053797;28;20136;-75
2021/10/18 00:10:05;;;;;;;33.13;16.80;;;9.10;99.90;;;;;;5054587;28;20129;-77
2021/10/18 00:12:32;;;;;;;29.92;16.63;;;9.00;99.90;;;;;;5054139;28;20518;-76
2021/10/18 00:15:01;;;;;;;30.58;15.60;;;9.00;99.90;;;;;;5054185;28;20140;-77
2021/10/18 00:17:28;;;;;;;28.38;14.63;;;9.00;99.90;;;;;;5054537;28;20144;-77
2021/10/18 00:19:55;;;;;;;28.13;15.27;;;8.90;99.90;;;;;;5054488;28;20143;-78
2021/10/18 00:22:22;;;;;;;27.38;14.55;;;8.80;99.90;;;;;;5053951;28;20128;-75
2021/10/18 00:24:49;;;;;;;28.13;13.70;;;8.70;99.90;;;;;;5054369;28;20136;-75
2021/10/18 00:27:16;;;;;;;21.65;12.35;;;8.60;99.90;;;;;;5054271;28;20132;-77
2021/10/18 00:29:43;;;;;;;19.85;11.15;;;8.50;99.90;;;;;;5054432;28;20131;-77
2021/10/18 00:32:12;;;;;;;20.45;11.68;;;8.50;99.90;;;;;;5053332;28;20144;-74
2021/10/18 00:34:39;;;;;;;22.00;12.57;;;8.40;99.90;;;;;;5054219;28;20479;-76
2021/10/18 00:37:06;;;;;;;20.35;11.75;;;8.30;99.90;;;;;;5053591;28;20136;-74
2021/10/18 00:39:33;;;;;;;19.08;11.38;;;8.30;99.90;;;;;;5054316;28;20077;-78
2021/10/18 00:42:00;;;;;;;19.65;11.27;;;8.20;99.90;;;;;;5053729;28;20084;-76
2021/10/18 00:44:27;;;;;;;18.45;10.45;;;8.20;99.90;;;;;;5053683;28;20044;-76
2021/10/18 00:46:54;;;;;;;20.55;12.00;;;8.10;99.90;;;;;;5053883;28;20068;-78
2021/10/18 00:49:23;;;;;;;20.85;11.85;;;8.10;99.90;;;;;;5053612;28;20088;-75
2021/10/18 00:51:50;;;;;;;22.88;12.52;;;8.00;99.90;;;;;;5053974;28;20124;-76
2021/10/18 00:54:17;;;;;;;22.33;12.20;;;7.90;99.90;;;;;;5053717;28;20167;-75
2021/10/18 00:56:45;;;;;;;23.05;12.13;;;7.90;99.90;;;;;;5053337;28;20124;-75
2021/10/18 00:59:13;;;;;;;22.30;12.43;;;7.90;99.90;;;;;;5053718;28;20132;-75
2021/10/18 01:01:40;;;;;;;29.70;15.23;;;7.90;99.90;;;;;;5053742;28;20132;-75
2021/10/18 01:04:07;;;;;;;24.85;13.13;;;7.90;99.90;;;;;;5053044;28;20132;-77
2021/10/18 01:06:36;;;;;;;28.48;13.98;;;7.90;99.90;;;;;;5053395;28;20491;-76
2021/10/18 01:09:03;;;;;;;26.00;13.45;;;7.90;99.90;;;;;;5053140;28;20137;-74
2021/10/18 01:11:30;;;;;;;24.95;12.82;;;7.90;99.90;;;;;;5053337;28;20132;-75
2021/10/18 01:13:57;;;;;;;28.65;14.95;;;7.90;99.90;;;;;;5053218;28;20132;-76
2021/10/18 01:16:24;;;;;;;30.17;15.07;;;7.90;99.90;;;;;;5052942;28;20140;-76
2021/10/18 01:18:51;;;;;;;26.42;14.00;;;8.00;99.90;;;;;;5052712;28;20144;-76
2021/10/18 01:21:20;;;;;;;31.55;15.27;;;7.90;99.90;;;;;;5053014;28;20190;-76
2021/10/18 01:23:47;;;;;;;31.27;15.60;;;7.90;99.90;;;;;;5052572;28;20558;-75
2021/10/18 01:26:14;;;;;;;30.13;14.85;;;8.00;99.90;;;;;;5053213;28;20135;-76
2021/10/18 01:28:41;;;;;;;30.23;14.63;;;7.90;99.90;;;;;;5053055;28;20116;-77
2021/10/18 01:31:08;;;;;;;27.70;13.73;;;8.00;99.90;;;;;;5052854;28;20132;-76
2021/10/18 01:33:36;;;;;;;29.35;14.35;;;8.00;99.90;;;;;;5052951;28;20124;-75
2021/10/18 01:36:03;;;;;;;26.42;13.35;;;8.00;99.90;;;;;;5053105;28;20045;-75
2021/10/18 01:38:31;;;;;;;29.02;13.05;;;8.00;99.90;;;;;;5052935;28;20045;-76
2021/10/18 01:40:58;;;;;;;29.48;13.32;;;8.00;99.90;;;;;;5052920;28;20140;-75
2021/10/18 01:43:25;;;;;;;30.17;13.32;;;8.10;99.90;;;;;;5052984;28;20140;-76
2021/10/18 01:45:52;;;;;;;28.65;13.43;;;8.10;99.90;;;;;;5052568;28;20135;-78
2021/10/18 01:48:19;;;;;;;28.60;13.25;;;8.10;99.90;;;;;;5052601;28;20140;-75
2021/10/18 01:50:46;;;;;;;26.80;12.65;;;8.20;99.90;;;;;;5052794;28;20128;-75
2021/10/18 01:53:13;;;;;;;27.52;13.32;;;8.30;99.90;;;;;;5052646;28;20558;-76
2021/10/18 01:55:42;;;;;;;31.92;13.60;;;8.30;99.90;;;;;;5052728;28;20497;-76
2021/10/18 01:58:11;;;;;;;30.92;14.43;;;8.40;99.90;;;;;;5052171;28;20144;-77
2021/10/18 02:00:38;;;;;;;26.80;13.65;;;8.50;99.90;;;;;;5052439;28;20132;-77
2021/10/18 02:03:05;;;;;;;28.50;13.60;;;8.50;99.90;;;;;;5052273;28;20127;-77
2021/10/18 02:05:32;;;;;;;28.65;14.50;;;8.60;99.90;;;;;;5052290;28;20471;-77
2021/10/18 02:08:00;;;;;;;29.95;14.50;;;8.60;99.90;;;;;;5051309;28;20136;-77
2021/10/18 02:10:27;;;;;;;27.05;13.45;;;8.60;99.90;;;;;;5052670;28;20489;-76
2021/10/18 02:12:55;;;;;;;29.88;13.90;;;8.70;99.90;;;;;;5051814;28;20553;-77
2021/10/18 02:15:22;;;;;;;32.75;15.13;;;8.70;99.90;;;;;;5052045;28;20144;-76
2021/10/18 02:17:49;;;;;;;28.88;13.90;;;8.80;99.90;;;;;;5052115;28;20139;-77
2021/10/18 02:20:17;;;;;;;30.17;15.48;;;8.80;99.90;;;;;;5052610;28;20467;-77
2021/10/18 02:22:44;;;;;;;34.92;16.15;;;8.80;99.90;;;;;;5052070;28;20487;-76
2021/10/18 02:25:13;;;;;;;31.73;15.63;;;8.80;99.90;;;;;;5052148;28;20144;-74
2021/10/18 02:27:41;;;;;;;32.70;16.00;;;8.80;99.90;;;;;;5051800;28;20155;-77
2021/10/18 02:30:13;;;;;;;34.00;15.30;;;8.80;99.90;;;;;;5052214;28;20135;-76
2021/10/18 02:32:41;;;;;;;37.60;16.30;;;8.80;99.90;;;;;;5051646;28;20045;-74
2021/10/18 02:35:09;;;;;;;36.33;16.08;;;8.80;99.90;;;;;;5052345;28;20107;-74
2021/10/18 02:37:36;;;;;;;34.58;16.10;;;8.80;99.90;;;;;;5051971;28;20045;-76
2021/10/18 02:40:04;;;;;;;34.35;16.45;;;8.90;99.90;;;;;;5052100;28;20132;-76
2021/10/18 02:42:31;;;;;;;37.38;17.42;;;8.90;99.90;;;;;;5051467;28;20131;-78
2021/10/18 02:44:58;;;;;;;37.30;16.98;;;8.90;99.90;;;;;;5052021;28;20467;-77
2021/10/18 02:47:27;;;;;;;37.10;16.95;;;8.90;99.90;;;;;;5052198;28;20135;-78
2021/10/18 02:49:54;;;;;;;37.40;17.17;;;8.90;99.90;;;;;;5052271;28;20124;-79
2021/10/18 02:52:21;;;;;;;38.78;18.35;;;8.90;99.90;;;;;;5051716;28;20108;-77
2021/10/18 02:54:48;;;;;;;40.92;18.10;;;8.90;99.90;;;;;;5051747;28;20128;-77
2021/10/18 02:57:15;;;;;;;36.88;17.13;;;8.90;99.90;;;;;;5052063;28;20136;-78
2021/10/18 02:59:42;;;;;;;37.00;16.25;;;8.90;99.90;;;;;;5051963;28;20570;-79
2021/10/18 03:02:10;;;;;;;36.78;16.58;;;8.90;99.90;;;;;;5050575;28;20403;-78
2021/10/18 03:04:39;;;;;;;37.33;16.27;;;8.90;99.90;;;;;;5049655;28;20102;-75
2021/10/18 03:07:06;;;;;;;41.05;17.85;;;8.90;99.90;;;;;;5049474;28;20144;-75
2021/10/18 03:09:33;;;;;;;40.08;17.73;;;8.90;99.90;;;;;;5048543;28;20059;-75
2021/10/18 03:12:00;;;;;;;42.28;17.33;;;9.00;99.90;;;;;;5048840;28;20049;-78
2021/10/18 03:14:27;;;;;;;35.10;16.60;;;9.00;99.90;;;;;;5048748;28;20155;-79
2021/10/18 03:16:54;;;;;;;41.40;18.85;;;9.00;99.90;;;;;;5049017;28;20136;-76
2021/10/18 03:19:21;;;;;;;36.67;15.98;;;9.00;99.90;;;;;;5051873;28;20045;-77
2021/10/18 03:21:50;;;;;;;34.75;15.80;;;9.00;99.90;;;;;;5052383;28;20091;-78
2021/10/18 03:24:17;;;;;;;29.67;13.65;;;9.00;99.90;;;;;;5051968;28;20052;-77
2021/10/18 03:26:44;;;;;;;28.00;12.88;;;9.00;99.90;;;;;;5052045;28;20056;-77
2021/10/18 03:29:11;;;;;;;28.10;13.30;;;9.00;99.90;;;;;;5052764;28;20049;-78
2021/10/18 03:31:38;;;;;;;26.13;11.98;;;9.00;99.90;;;;;;5053184;28;20135;-77
2021/10/18 03:34:06;;;;;;;26.42;12.65;;;9.00;99.90;;;;;;5052862;28;20104;-78
2021/10/18 03:36:33;;;;;;;25.55;12.00;;;9.00;99.90;;;;;;5052212;28;20057;-77
2021/10/18 03:39:01;;;;;;;25.17;12.38;;;9.00;99.90;;;;;;5053143;28;20465;-79
2021/10/18 03:41:28;;;;;;;24.23;11.32;;;9.00;99.90;;;;;;5053130;28;20562;-78
2021/10/18 03:43:55;;;;;;;27.25;12.70;;;9.00;99.90;;;;;;5053102;28;20053;-81
2021/10/18 03:46:23;;;;;;;28.35;13.65;;;9.00;99.90;;;;;;5052918;28;20075;-79
2021/10/18 03:48:50;;;;;;;27.83;13.45;;;8.90;99.90;;;;;;5052491;28;20049;-76
2021/10/18 03:51:17;;;;;;;28.65;13.35;;;8.90;99.90;;;;;;5052271;28;20157;-77
2021/10/18 03:53:44;;;;;;;30.35;14.38;;;8.90;99.90;;;;;;5052418;28;20447;-80
2021/10/18 03:56:12;;;;;;;32.03;14.15;;;8.90;99.90;;;;;;5052448;28;20483;-79
2021/10/18 03:58:39;;;;;;;32.13;14.65;;;9.00;99.90;;;;;;5052409;28;20772;-79
2021/10/18 04:01:09;;;;;;;31.80;14.55;;;9.00;99.90;;;;;;5053227;28;20124;-79
2021/10/18 04:03:37;;;;;;;35.35;15.65;;;9.00;99.90;;;;;;5054434;28;20049;-80
2021/10/18 04:06:04;;;;;;;30.02;14.18;;;9.00;99.90;;;;;;5054196;28;20501;-78
2021/10/18 04:08:32;;;;;;;28.77;14.23;;;9.00;99.90;;;;;;5054648;28;20132;-78
2021/10/18 04:11:00;;;;;;;31.05;14.68;;;9.00;99.90;;;;;;5054650;28;20048;-76
2021/10/18 04:13:29;;;;;;;31.70;14.60;;;9.00;99.90;;;;;;5054580;28;20082;-76
2021/10/18 04:15:56;;;;;;;32.08;14.50;;;9.00;99.90;;;;;;5054539;28;20132;-76
2021/10/18 04:18:23;;;;;;;26.83;12.02;;;9.00;99.90;;;;;;5054180;28;20151;-74
2021/10/18 04:20:50;;;;;;;28.85;13.65;;;9.00;99.90;;;;;;5054098;28;20132;-73
2021/10/18 04:23:18;;;;;;;26.80;12.70;;;9.00;99.90;;;;;;5054377;28;20045;-76
2021/10/18 04:25:45;;;;;;;25.02;12.30;;;9.00;99.90;;;;;;5053983;28;20055;-76
2021/10/18 04:28:12;;;;;;;26.85;13.32;;;9.10;99.90;;;;;;5054088;28;20132;-74
2021/10/18 04:30:40;;;;;;;25.52;12.63;;;9.00;99.90;;;;;;5053577;28;20136;-75
2021/10/18 04:33:07;;;;;;;31.65;14.95;;;9.10;99.90;;;;;;5053426;28;20136;-77
2021/10/18 04:35:34;;;;;;;30.40;14.50;;;9.00;99.90;;;;;;5054410;28;20087;-76
2021/10/18 04:38:02;;;;;;;30.20;14.90;;;9.10;99.90;;;;;;5054132;28;20136;-76
2021/10/18 04:40:29;;;;;;;31.30;14.52;;;9.10;99.90;;;;;;5054187;28;20127;-78
2021/10/18 04:42:56;;;;;;;28.42;14.27;;;9.10;99.90;;;;;;5054315;28;20140;-77
2021/10/18 04:45:23;;;;;;;29.33;13.77;;;9.10;99.90;;;;;;5053738;28;20141;-77
2021/10/18 04:47:52;;;;;;;28.63;14.15;;;9.10;99.90;;;;;;5053496;28;20238;-76
2021/10/18 04:50:22;;;;;;;28.98;14.05;;;9.10;99.90;;;;;;5053949;28;20088;-78
2021/10/18 04:52:50;;;;;;;27.05;13.77;;;9.10;99.90;;;;;;5054213;28;20132;-77
2021/10/18 04:55:17;;;;;;;26.38;13.50;;;9.10;99.90;;;;;;5054452;28;20136;-77
2021/10/18 04:57:53;;;;;;;28.95;15.52;;;9.10;99.90;;;;;;5055808;28;20075;-76
2021/10/18 05:00:21;;;;;;;28.55;15.18;;;9.10;99.90;;;;;;5054003;28;20131;-73
2021/10/18 05:02:48;;;;;;;25.05;13.27;;;9.10;99.90;;;;;;5053490;28;20067;-76
2021/10/18 05:05:17;;;;;;;23.50;12.68;;;9.20;99.90;;;;;;5053754;28;20132;-75
2021/10/18 05:07:44;;;;;;;22.52;12.73;;;9.10;99.90;;;;;;5053442;28;20151;-74
2021/10/18 05:10:12;;;;;;;20.70;11.70;;;9.20;99.90;;;;;;5053347;28;20502;-75
2021/10/18 05:12:40;;;;;;;22.90;12.43;;;9.10;99.90;;;;;;5053769;28;20132;-74
2021/10/18 05:15:09;;;;;;;23.02;12.52;;;9.20;99.90;;;;;;5053618;28;20141;-76
2021/10/18 05:17:36;;;;;;;22.77;12.82;;;9.20;99.90;;;;;;5053283;28;20453;-74
2021/10/18 05:20:04;;;;;;;23.77;13.45;;;9.10;99.90;;;;;;5053211;28;20139;-76
2021/10/18 05:22:33;;;;;;;21.52;12.57;;;9.20;99.90;;;;;;5053406;28;20132;-75
2021/10/18 05:25:00;;;;;;;24.40;13.88;;;9.10;99.90;;;;;;5055898;28;20127;-75
2021/10/18 05:27:27;;;;;;;23.17;13.43;;;9.10;99.90;;;;;;5073229;28;20123;-76
2021/10/18 05:29:54;;;;;;;25.95;14.18;;;9.10;99.90;;;;;;5073117;28;20477;-75
2021/10/18 05:32:21;;;;;;;23.52;12.60;;;9.20;99.90;;;;;;5072720;28;20148;-76
2021/10/18 05:34:48;;;;;;;23.88;13.57;;;9.10;99.90;;;;;;5073356;28;20040;-74
2021/10/18 05:37:15;;;;;;;24.65;13.98;;;9.20;99.90;;;;;;5073143;28;20135;-76
2021/10/18 05:39:43;;;;;;;25.90;14.05;;;9.20;99.90;;;;;;5073184;28;20142;-76
2021/10/18 05:42:10;;;;;;;23.98;13.45;;;9.20;99.90;;;;;;5072861;28;20125;-76
2021/10/18 05:44:37;;;;;;;22.95;13.02;;;9.20;99.90;;;;;;5072334;28;20141;-73
2021/10/18 05:47:05;;;;;;;24.38;13.18;;;9.10;99.90;;;;;;5072974;28;20129;-74
2021/10/18 05:49:32;;;;;;;25.88;13.45;;;9.20;99.90;;;;;;5073002;28;20143;-75
2021/10/18 05:52:01;;;;;;;22.73;12.48;;;9.20;99.90;;;;;;5072422;28;20493;-74
2021/10/18 05:54:28;;;;;;;23.30;12.82;;;9.20;99.90;;;;;;5072411;28;20048;-75
2021/10/18 05:56:56;;;;;;;23.80;12.63;;;9.20;99.90;;;;;;5072604;28;20103;-76
2021/10/18 05:59:23;;;;;;;25.92;13.70;;;9.20;99.90;;;;;;5072291;28;20681;-75
2021/10/18 06:01:51;;;;;;;23.35;12.52;;;9.20;99.90;;;;;;5072411;28;20144;-76
2021/10/18 06:04:18;;;;;;;25.40;13.10;;;9.30;99.90;;;;;;5072471;28;20135;-75
2021/10/18 06:06:45;;;;;;;22.88;12.23;;;9.30;99.90;;;;;;5072454;28;20058;-74
2021/10/18 06:09:14;;;;;;;21.90;12.05;;;9.30;99.90;;;;;;5072869;28;20463;-76
2021/10/18 06:11:41;;;;;;;22.33;12.80;;;9.30;99.90;;;;;;5071983;28;20590;-74
2021/10/18 06:14:10;;;;;;;20.33;11.23;;;9.30;99.90;;;;;;5072188;28;20048;-75
2021/10/18 06:16:37;;;;;;;22.90;11.90;;;9.20;99.90;;;;;;5071778;28;20135;-76
2021/10/18 06:19:04;;;;;;;23.92;13.30;;;9.30;99.90;;;;;;5071937;28;20147;-75
2021/10/18 06:21:31;;;;;;;19.77;11.77;;;9.30;99.90;;;;;;5071554;28;20482;-76
2021/10/18 06:23:58;;;;;;;24.13;12.32;;;9.30;99.90;;;;;;5071521;28;20128;-75
2021/10/18 06:26:26;;;;;;;22.15;12.43;;;9.30;99.90;;;;;;5071993;28;20083;-75
2021/10/18 06:28:53;;;;;;;21.92;12.38;;;9.30;99.90;;;;;;5072121;28;20135;-76
2021/10/18 06:31:21;;;;;;;21.90;12.02;;;9.30;99.90;;;;;;5071987;28;20087;-77
2021/10/18 06:33:48;;;;;;;23.50;12.60;;;9.30;99.90;;;;;;5071691;28;20131;-75
2021/10/18 06:36:15;;;;;;;20.80;11.70;;;9.40;99.90;;;;;;5071805;28;20052;-75
2021/10/18 06:38:42;;;;;;;21.83;12.02;;;9.40;99.90;;;;;;5071997;28;20139;-75
2021/10/18 06:41:09;;;;;;;21.90;12.05;;;9.40;99.90;;;;;;5071933;28;20127;-74
2021/10/18 06:43:36;;;;;;;21.95;12.73;;;9.40;99.90;;;;;;5074478;28;20140;-75
2021/10/18 06:46:03;;;;;;;22.33;12.35;;;9.40;99.90;;;;;;5072201;28;20123;-76
2021/10/18 06:48:32;;;;;;;21.15;11.60;;;9.40;99.90;;;;;;5071717;28;20127;-76
2021/10/18 06:50:59;;;;;;;21.65;11.93;;;9.40;99.90;;;;;;5071560;28;20053;-76
2021/10/18 06:53:32;;;;;;;21.60;12.07;;;9.40;99.90;;;;;;5073555;28;20114;-77
2021/10/18 06:56:02;;;;;;;24.00;12.23;;;9.50;99.90;;;;;;5075653;28;20136;-76
2021/10/18 06:58:30;;;;;;;21.63;12.23;;;9.50;99.90;;;;;;5075580;28;20124;-75
2021/10/18 07:00:57;;;;;;;22.92;12.35;;;9.50;99.90;;;;;;5075580;28;20049;-76
2021/10/18 07:03:24;;;;;;;22.40;12.65;;;9.60;99.90;;;;;;5075568;28;20555;-74
2021/10/18 07:05:53;;;;;;;20.08;11.50;;;9.60;99.90;;;;;;5075686;28;20088;-75
2021/10/18 07:08:20;;;;;;;21.70;12.52;;;9.60;99.90;;;;;;5075291;28;20045;-76
2021/10/18 07:10:47;;;;;;;20.42;11.90;;;9.60;99.90;;;;;;5075446;28;20048;-77
2021/10/18 07:13:14;;;;;;;19.33;11.93;;;9.60;99.90;;;;;;5075128;28;20509;-76
2021/10/18 07:15:41;;;;;;;19.65;11.25;;;9.60;99.90;;;;;;5075094;28;20140;-77
2021/10/18 07:18:09;;;;;;;18.08;10.38;;;9.60;99.90;;;;;;5075149;28;20132;-77
2021/10/18 07:20:36;;;;;;;17.55;10.10;;;9.70;99.90;;;;;;5075404;28;20052;-75
2021/10/18 07:23:09;;;;;;;17.02;9.52;;;9.60;99.90;;;;;;5075280;28;20123;-75
2021/10/18 07:25:38;;;;;;;17.02;9.77;;;9.60;99.90;;;;;;5075226;28;20448;-75
2021/10/18 07:28:06;;;;;;;16.75;9.40;;;9.60;99.90;;;;;;5075116;28;20045;-75
2021/10/18 07:30:34;;;;;;;17.23;10.15;;;9.70;99.90;;;;;;5074894;28;20131;-75
2021/10/18 07:33:01;;;;;;;17.98;10.57;;;9.70;99.90;;;;;;5074991;28;20052;-76
2021/10/18 07:35:31;;;;;;;16.25;9.88;;;9.70;99.90;;;;;;5075010;28;20127;-77
2021/10/18 07:37:59;;;;;;;15.85;9.25;;;9.80;99.90;;;;;;5074737;28;20498;-77
2021/10/18 07:40:28;;;;;;;16.23;9.30;;;9.80;99.90;;;;;;5075011;28;20090;-76
2021/10/18 07:42:55;;;;;;;22.30;12.50;;;9.80;99.90;;;;;;5074484;28;20562;-76
2021/10/18 07:45:23;;;;;;;19.83;11.35;;;9.80;99.90;;;;;;5074978;28;20083;-76
2021/10/18 07:47:50;;;;;;;15.85;9.00;;;9.90;99.90;;;;;;5074854;28;20127;-73
2021/10/18 07:50:17;;;;;;;14.82;8.40;;;9.90;99.90;;;;;;5074572;28;20074;-76
2021/10/18 07:52:45;;;;;;;14.60;8.27;;;9.80;99.90;;;;;;5074565;28;20132;-76
2021/10/18 07:55:15;;;;;;;14.13;8.05;;;9.90;99.90;;;;;;5074481;28;20135;-76
2021/10/18 07:57:45;;;;;;;15.65;8.27;;;9.90;99.90;;;;;;5074522;28;20109;-76
2021/10/18 08:00:14;;;;;;;13.90;8.00;;;9.90;99.90;;;;;;5074402;28;20574;-76
2021/10/18 08:02:41;;;;;;;13.65;8.18;;;9.90;99.90;;;;;;5074425;28;20525;-76
2021/10/18 08:05:15;;;;;;;14.60;8.45;;;9.90;99.90;;;;;;5073186;28;20140;-75
2021/10/18 08:07:42;;;;;;;12.98;7.63;;;9.90;99.90;;;;;;5074321;28;20072;-75
2021/10/18 08:10:12;;;;;;;14.02;8.20;;;9.90;99.90;;;;;;5074122;28;20413;-74
2021/10/18 08:12:40;;;;;;;13.10;7.70;;;9.90;99.90;;;;;;5074200;28;20147;-76
2021/10/18 08:15:09;;;;;;;11.85;6.88;;;9.90;99.90;;;;;;5074248;28;20128;-75
2021/10/18 08:17:36;;;;;;;12.95;7.38;;;9.90;99.90;;;;;;5074329;28;20124;-77
2021/10/18 08:20:04;;;;;;;13.43;7.93;;;10.00;99.90;;;;;;5074110;28;20048;-75
2021/10/18 08:22:31;;;;;;;15.13;8.18;;;10.00;99.90;;;;;;5074043;28;20143;-75
2021/10/18 08:24:58;;;;;;;13.85;7.80;;;10.10;99.90;;;;;;5074190;28;20151;-74
2021/10/18 08:27:25;;;;;;;15.27;8.75;;;10.00;99.90;;;;;;5074171;28;20135;-76
2021/10/18 08:29:52;;;;;;;16.60;8.77;;;10.10;99.90;;;;;;5075384;28;20132;-75
2021/10/18 08:32:20;;;;;;;15.65;9.23;;;10.10;99.90;;;;;;5075090;28;20139;-75
2021/10/18 08:34:48;;;;;;;16.63;9.43;;;10.20;99.90;;;;;;5073829;28;20136;-75
2021/10/18 08:37:15;;;;;;;14.95;9.05;;;10.20;99.90;;;;;;5073835;28;20143;-75
2021/10/18 08:40:04;;;;;;;15.52;8.45;;;10.30;99.90;;;;;;5073787;28;20139;-77
2021/10/18 08:42:41;;;;;;;15.23;9.23;;;10.30;99.90;;;;;;5073767;28;20075;-76
2021/10/18 08:45:09;;;;;;;16.73;9.85;;;10.30;99.90;;;;;;5073536;28;20040;-76
2021/10/18 08:47:38;;;;;;;16.05;9.38;;;10.30;99.90;;;;;;5073455;28;20083;-74
2021/10/18 08:50:08;;;;;;;15.45;8.93;;;10.40;99.90;;;;;;5073258;28;20055;-78
2021/10/18 08:52:36;;;;;;;16.60;9.60;;;10.40;99.90;;;;;;5073642;28;20048;-75
2021/10/18 08:55:06;;;;;;;17.90;9.93;;;10.40;99.90;;;;;;5073524;28;20045;-77
2021/10/18 08:57:33;;;;;;;17.02;9.52;;;10.50;99.90;;;;;;5073505;28;20128;-74
2021/10/18 09:00:00;;;;;;;18.23;10.65;;;10.50;99.90;;;;;;5073236;28;20075;-76
2021/10/18 09:02:37;;;;;;;16.42;9.73;;;10.50;99.90;;;;;;5073166;28;20131;-76
2021/10/18 09:05:07;;;;;;;22.48;12.10;;;10.50;99.90;;;;;;5073124;28;20055;-74
2021/10/18 09:07:37;;;;;;;22.23;12.32;;;10.50;99.90;;;;;;5072908;28;20407;-76
2021/10/18 09:10:12;;;;;;;23.00;13.77;;;10.60;99.90;;;;;;5072651;28;20053;-76
2021/10/18 09:12:40;;;;;;;21.15;12.55;;;10.60;99.90;;;;;;5072953;28;20383;-74
2021/10/18 09:15:23;;;;;;;17.00;11.00;;;10.60;99.90;;;;;;5073217;28;20399;-74
2021/10/18 09:17:55;;;;;;;17.25;10.43;;;10.70;99.90;;;;;;5072906;28;20482;-76
2021/10/18 09:20:27;;;;;;;18.52;11.55;;;10.70;99.90;;;;;;5064280;28;20133;-76
2021/10/18 09:23:15;;;;;;;20.15;11.07;;;10.70;99.90;;;;;;5052292;28;20144;-76
2021/10/18 09:25:42;;;;;;;17.20;9.82;;;10.80;99.90;;;;;;5052541;28;20131;-77
2021/10/18 09:28:12;;;;;;;17.65;9.95;;;10.80;99.90;;;;;;5052720;28;20044;-75
2021/10/18 09:30:41;;;;;;;19.25;10.27;;;10.80;99.90;;;;;;5052480;28;20140;-74
2021/10/18 09:33:23;;;;;;;18.88;11.70;;;10.90;99.90;;;;;;5052717;28;20136;-76
2021/10/18 09:35:52;;;;;;;19.83;11.23;;;10.90;99.90;;;;;;5052743;28;20049;-76
2021/10/18 09:38:20;;;;;;;18.45;10.70;;;10.90;99.90;;;;;;5050646;28;20055;-75
2021/10/18 09:40:49;;;;;;;19.48;11.05;;;11.00;99.90;;;;;;5052236;28;20049;-75
2021/10/18 09:43:24;;;;;;;17.75;10.52;;;11.00;99.90;;;;;;5052507;28;20588;-76
2021/10/18 09:46:11;;;;;;;17.27;10.13;;;11.00;99.90;;;;;;5051941;28;20045;-76
2021/10/18 10:51:35;;;;;;;17.38;10.50;;;12.40;99.70;;;;;;5051439;28;20048;-76
2021/10/18 10:54:04;;;;;;;15.55;9.40;;;12.40;99.50;;;;;;5051093;28;20041;-76
2021/10/18 10:56:43;;;;;;;15.68;9.73;;;12.40;99.60;;;;;;5051421;28;20494;-74
2021/10/18 10:59:20;;;;;;;15.18;10.05;;;12.40;99.40;;;;;;5051774;28;20136;-79
2021/10/18 11:02:00;;;;;;;17.88;10.55;;;12.40;99.40;;;;;;5051717;28;20449;-77
2021/10/18 11:04:49;;;;;;;17.63;10.52;;;12.50;99.30;;;;;;5051509;28;20049;-80
2021/10/18 11:07:54;;;;;;;14.93;9.18;;;12.40;99.20;;;;;;5051159;28;20148;-80
2021/10/18 11:10:24;;;;;;;16.55;9.10;;;12.50;99.60;;;;;;5051398;28;20059;-80
2021/10/18 11:13:05;;;;;;;16.10;10.55;;;12.50;99.60;;;;;;5051389;28;20088;-79
2021/10/18 11:15:32;;;;;;;14.48;9.55;;;12.50;99.20;;;;;;5051227;28;20128;-78
2021/10/18 11:17:59;;;;;;;17.52;10.82;;;12.50;99.10;;;;;;5051135;28;20141;-81
2021/10/18 11:20:28;;;;;;;13.95;8.98;;;12.40;98.80;;;;;;5051612;28;20222;-79
2021/10/18 11:22:58;;;;;;;18.00;10.48;;;12.40;99.30;;;;;;5051135;28;20130;-80
2021/10/18 11:25:29;;;;;;;15.63;8.57;;;12.40;99.40;;;;;;5051310;28;20268;-81
2021/10/18 11:28:00;;;;;;;17.23;10.02;;;12.40;99.60;;;;;;5051164;28;20132;-79
2021/10/18 11:30:31;;;;;;;14.05;9.00;;;12.50;99.40;;;;;;5051167;28;20136;-80
2021/10/18 11:33:00;;;;;;;14.82;9.27;;;12.50;99.30;;;;;;5051156;28;20131;-78
2021/10/18 11:35:29;;;;;;;14.00;8.48;;;12.60;99.50;;;;;;5051227;28;20129;-80
2021/10/18 11:38:00;;;;;;;14.18;8.55;;;12.60;99.30;;;;;;5051147;28;20145;-80
2021/10/18 11:40:32;;;;;;;14.05;9.25;;;12.70;99.20;;;;;;5054098;28;20041;-80
2021/10/18 11:43:02;;;;;;;12.70;7.78;;;12.80;99.10;;;;;;5055139;28;20139;-77
2021/10/18 11:45:33;;;;;;;13.77;9.10;;;12.90;99.00;;;;;;5055090;28;20124;-80
2021/10/18 11:48:09;;;;;;;14.50;9.48;;;13.00;98.80;;;;;;5054819;28;20574;-80
2021/10/18 11:50:38;;;;;;;11.48;7.32;;;13.10;98.70;;;;;;5054642;28;20076;-78
2021/10/18 11:53:15;;;;;;;12.05;7.43;;;13.20;98.90;;;;;;5054154;28;20137;-79
2021/10/18 11:55:46;;;;;;;12.35;6.88;;;13.50;98.90;;;;;;5054681;28;20049;-80
2021/10/18 11:58:18;;;;;;;10.95;6.88;;;13.70;98.90;;;;;;5054707;28;20051;-80
2021/10/18 12:00:45;;;;;;;11.70;7.95;;;13.80;98.90;;;;;;5054569;28;20152;-79
2021/10/18 12:03:15;;;;;;;11.85;7.47;;;14.00;98.20;;;;;;5053892;28;20489;-80
2021/10/18 12:05:45;;;;;;;12.40;7.82;;;14.20;97.80;;;;;;5055171;28;20183;-75
2021/10/18 12:08:13;;;;;;;12.35;7.47;;;14.40;97.30;;;;;;5054082;28;20049;-80
2021/10/18 12:10:43;;;;;;;11.35;7.30;;;14.60;97.30;;;;;;5054357;28;20132;-75
2021/10/18 12:13:23;;;;;;;10.50;6.85;;;14.80;96.80;;;;;;5054246;28;20151;-80
2021/10/18 12:16:09;;;;;;;11.02;7.32;;;15.00;96.60;;;;;;5054028;28;20049;-78
2021/10/18 12:18:45;;;;;;;10.55;6.65;;;15.20;96.40;;;;;;5054572;28;20136;-80
2021/10/18 12:21:15;;;;;;;9.32;6.60;;;15.40;96.20;;;;;;5053448;28;20048;-77
2021/10/18 12:23:51;;;;;;;8.07;5.82;;;15.50;96.10;;;;;;5053901;28;20136;-79
2021/10/18 12:26:20;;;;;;;8.60;5.22;;;15.90;96.30;;;;;;5053840;28;20128;-79
2021/10/18 12:28:51;;;;;;;9.30;5.60;;;16.20;96.40;;;;;;5054103;28;20140;-80
2021/10/18 12:31:32;;;;;;;9.63;6.57;;;16.50;95.90;;;;;;5053972;28;20143;-79
2021/10/18 12:34:09;;;;;;;8.73;6.18;;;16.70;95.00;;;;;;5053813;28;20052;-76
2021/10/18 12:37:01;;;;;;;10.63;7.13;;;16.80;94.20;;;;;;5053393;28;20053;-79
2021/10/18 12:39:45;;;;;;;10.15;7.07;;;16.90;93.70;;;;;;5053907;28;20045;-78
2021/10/18 12:42:15;;;;;;;11.38;7.32;;;17.00;93.20;;;;;;5053740;28;20041;-79
2021/10/18 12:44:46;;;;;;;13.77;8.15;;;17.20;92.20;;;;;;5053682;28;20124;-78
2021/10/18 12:47:16;;;;;;;10.20;7.13;;;17.40;91.30;;;;;;5053662;28;20094;-79
2021/10/18 12:49:51;;;;;;;9.18;6.53;;;17.50;90.90;;;;;;5053602;28;20055;-79
2021/10/18 12:52:28;;;;;;;9.50;6.18;;;17.60;90.70;;;;;;5052083;28;20407;-78
2021/10/18 12:54:56;;;;;;;9.48;6.00;;;17.70;90.60;;;;;;5053465;28;20052;-79
2021/10/18 12:57:26;;;;;;;8.48;5.75;;;17.90;90.40;;;;;;5053429;28;20136;-78
2021/10/18 13:00:08;;;;;;;9.88;5.72;;;18.10;89.10;;;;;;5053165;28;20487;-77
2021/10/18 13:02:36;;;;;;;9.63;5.97;;;18.30;89.00;;;;;;5033704;28;20136;-78
2021/10/18 13:05:13;;;;;;;9.20;5.75;;;18.50;87.00;;;;;;5033395;28;20140;-80
2021/10/18 13:07:43;;;;;;;8.88;5.55;;;18.70;86.50;;;;;;5033181;28;20144;-79
2021/10/18 13:10:13;;;;;;;9.68;5.88;;;19.00;85.60;;;;;;5033068;28;20163;-80
2021/10/18 13:12:42;;;;;;;8.55;5.78;;;19.30;82.70;;;;;;5033437;28;20103;-79
2021/10/18 13:15:15;;;;;;;8.00;5.30;;;19.60;81.70;;;;;;5048366;28;20098;-79
2021/10/18 13:17:42;;;;;;;9.20;5.38;;;19.90;79.60;;;;;;5053261;28;20124;-79
2021/10/18 13:20:11;;;;;;;7.97;5.25;;;20.30;76.40;;;;;;5052901;28;20128;-77
2021/10/18 13:22:38;;;;;;;7.97;5.63;;;20.50;73.70;;;;;;5052689;28;20148;-79
2021/10/18 13:25:07;;;;;;;7.75;5.05;;;20.80;72.60;;;;;;5052936;28;20136;-78
2021/10/18 13:27:36;;;;;;;8.85;6.07;;;21.10;71.90;;;;;;5052975;28;20145;-79
2021/10/18 13:30:04;;;;;;;10.82;5.53;;;21.20;67.60;;;;;;5052555;28;20045;-79
2021/10/18 13:32:33;;;;;;;7.78;5.20;;;21.60;67.30;;;;;;5052717;28;20084;-79
2021/10/18 13:35:00;;;;;;;7.28;5.28;;;22.00;64.80;;;;;;5052260;28;20124;-79
2021/10/18 13:37:28;;;;;;;8.20;5.32;;;22.60;62.30;;;;;;5052807;28;20147;-78
2021/10/18 13:39:55;;;;;;;8.80;5.97;;;23.20;60.20;;;;;;5052972;28;20140;-76
2021/10/18 13:42:22;;;;;;;9.25;5.35;;;24.00;57.60;;;;;;5053423;28;20083;-78
2021/10/18 13:44:50;;;;;;;8.30;5.60;;;24.60;55.30;;;;;;5052723;28;20144;-79
2021/10/18 13:47:18;;;;;;;7.63;5.32;;;25.20;54.40;;;;;;5052986;28;20135;-79
2021/10/18 13:49:46;;;;;;;9.38;5.32;;;25.80;52.90;;;;;;5052240;28;20083;-79